sensor_id;sensor_type;location;lat;lon;timestamp;P1;durP1;ratioP1;P2;durP2;ratioP2
19879;SDS011;10102;50.828;4.416;2023-04-01T00:00:25;7.13;;;3.05;;
19879;SDS011;10102;50.828;4.416;2023-04-01T00:02:50;12.50;;;3.05;;
19879;SDS011;10102;50.828;4.416;2023-04-01T00:05:16;12.70;;;3.33;;
19879;SDS011;10102;50.828;4.416;2023-04-01T00:07:42;11.68;;;3.45;;
19879;SDS011;10102;50.828;4.416;2023-04-01T00:10:09;12.77;;;3.40;;
19879;SDS011;10102;50.828;4.416;2023-04-01T00:12:36;20.23;;;3.50;;
19879;SDS011;10102;50.828;4.416;2023-04-01T00:15:03;24.92;;;3.85;;
19879;SDS011;10102;50.828;4.416;2023-04-01T00:17:31;12.93;;;3.13;;
19879;SDS011;10102;50.828;4.416;2023-04-01T00:19:57;11.73;;;3.47;;
19879;SDS011;10102;50.828;4.416;2023-04-01T00:22:23;8.70;;;3.00;;
19879;SDS011;10102;50.828;4.416;2023-04-01T00:24:51;13.70;;;3.67;;
19879;SDS011;10102;50.828;4.416;2023-04-01T00:27:17;8.30;;;2.90;;
19879;SDS011;10102;50.828;4.416;2023-04-01T00:29:43;20.48;;;3.50;;
19879;SDS011;10102;50.828;4.416;2023-04-01T00:32:10;9.02;;;2.28;;
19879;SDS011;10102;50.828;4.416;2023-04-01T00:34:36;18.45;;;3.15;;
19879;SDS011;10102;50.828;4.416;2023-04-01T00:37:03;11.45;;;2.78;;
19879;SDS011;10102;50.828;4.416;2023-04-01T00:39:29;9.80;;;2.53;;
19879;SDS011;10102;50.828;4.416;2023-04-01T00:41:56;9.35;;;2.55;;
19879;SDS011;10102;50.828;4.416;2023-04-01T00:44:26;6.68;;;2.45;;
19879;SDS011;10102;50.828;4.416;2023-04-01T00:46:53;8.82;;;2.80;;
19879;SDS011;10102;50.828;4.416;2023-04-01T00:49:21;8.10;;;2.65;;
19879;SDS011;10102;50.828;4.416;2023-04-01T00:51:50;8.10;;;2.55;;
19879;SDS011;10102;50.828;4.416;2023-04-01T00:54:20;10.18;;;3.00;;
19879;SDS011;10102;50.828;4.416;2023-04-01T00:56:54;13.45;;;2.58;;
19879;SDS011;10102;50.828;4.416;2023-04-01T00:59:34;6.10;;;2.63;;
19879;SDS011;10102;50.828;4.416;2023-04-01T01:02:05;7.03;;;2.60;;
19879;SDS011;10102;50.828;4.416;2023-04-01T01:04:35;12.35;;;2.80;;
19879;SDS011;10102;50.828;4.416;2023-04-01T01:15:52;8.65;;;3.28;;
19879;SDS011;10102;50.828;4.416;2023-04-01T01:18:40;6.35;;;2.38;;
19879;SDS011;10102;50.828;4.416;2023-04-01T01:21:25;6.55;;;2.42;;
19879;SDS011;10102;50.828;4.416;2023-04-01T01:29:45;9.95;;;2.70;;
19879;SDS011;10102;50.828;4.416;2023-04-01T01:38:13;5.70;;;3.05;;
19879;SDS011;10102;50.828;4.416;2023-04-01T01:40:42;5.97;;;3.13;;
19879;SDS011;10102;50.828;4.416;2023-04-01T01:43:11;9.73;;;3.13;;
19879;SDS011;10102;50.828;4.416;2023-04-01T01:45:43;8.18;;;3.50;;
19879;SDS011;10102;50.828;4.416;2023-04-01T01:48:16;12.52;;;3.30;;
19879;SDS011;10102;50.828;4.416;2023-04-01T01:50:44;8.57;;;3.72;;
19879;SDS011;10102;50.828;4.416;2023-04-01T01:53:12;8.20;;;3.63;;
19879;SDS011;10102;50.828;4.416;2023-04-01T01:55:39;16.73;;;4.22;;
19879;SDS011;10102;50.828;4.416;2023-04-01T01:58:49;13.90;;;4.28;;
19879;SDS011;10102;50.828;4.416;2023-04-01T02:00:58;11.13;;;4.63;;
19879;SDS011;10102;50.828;4.416;2023-04-01T02:03:26;10.70;;;4.82;;
19879;SDS011;10102;50.828;4.416;2023-04-01T02:05:56;13.90;;;4.65;;
19879;SDS011;10102;50.828;4.416;2023-04-01T02:08:31;15.70;;;5.70;;
19879;SDS011;10102;50.828;4.416;2023-04-01T02:11:05;18.20;;;5.13;;
19879;SDS011;10102;50.828;4.416;2023-04-01T02:13:48;13.60;;;5.40;;
19879;SDS011;10102;50.828;4.416;2023-04-01T02:19:33;15.40;;;5.80;;
19879;SDS011;10102;50.828;4.416;2023-04-01T02:22:03;14.65;;;6.18;;
19879;SDS011;10102;50.828;4.416;2023-04-01T02:24:31;14.52;;;6.43;;
19879;SDS011;10102;50.828;4.416;2023-04-01T02:27:00;17.98;;;6.22;;
19879;SDS011;10102;50.828;4.416;2023-04-01T02:29:26;14.00;;;5.50;;
19879;SDS011;10102;50.828;4.416;2023-04-01T02:31:52;13.88;;;5.68;;
19879;SDS011;10102;50.828;4.416;2023-04-01T02:34:20;18.92;;;6.22;;
19879;SDS011;10102;50.828;4.416;2023-04-01T02:36:48;19.20;;;6.70;;
19879;SDS011;10102;50.828;4.416;2023-04-01T02:39:19;19.50;;;5.88;;
19879;SDS011;10102;50.828;4.416;2023-04-01T02:41:45;19.83;;;5.85;;
19879;SDS011;10102;50.828;4.416;2023-04-01T02:44:12;16.50;;;6.55;;
19879;SDS011;10102;50.828;4.416;2023-04-01T02:46:39;17.17;;;6.38;;
19879;SDS011;10102;50.828;4.416;2023-04-01T02:49:04;16.05;;;5.90;;
19879;SDS011;10102;50.828;4.416;2023-04-01T02:51:31;16.67;;;6.10;;
19879;SDS011;10102;50.828;4.416;2023-04-01T02:53:57;17.60;;;6.10;;
19879;SDS011;10102;50.828;4.416;2023-04-01T02:56:23;17.10;;;5.85;;
19879;SDS011;10102;50.828;4.416;2023-04-01T02:58:48;16.27;;;6.22;;
19879;SDS011;10102;50.828;4.416;2023-04-01T03:01:14;21.10;;;5.50;;
19879;SDS011;10102;50.828;4.416;2023-04-01T03:03:40;13.85;;;4.97;;
19879;SDS011;10102;50.828;4.416;2023-04-01T03:06:06;17.27;;;5.97;;
19879;SDS011;10102;50.828;4.416;2023-04-01T03:08:34;16.45;;;5.13;;
19879;SDS011;10102;50.828;4.416;2023-04-01T03:11:00;16.05;;;5.72;;
19879;SDS011;10102;50.828;4.416;2023-04-01T03:13:25;17.88;;;5.32;;
19879;SDS011;10102;50.828;4.416;2023-04-01T03:15:51;20.52;;;6.47;;
19879;SDS011;10102;50.828;4.416;2023-04-01T03:18:18;17.05;;;5.97;;
19879;SDS011;10102;50.828;4.416;2023-04-01T03:20:44;19.90;;;6.80;;
19879;SDS011;10102;50.828;4.416;2023-04-01T03:23:10;16.92;;;7.05;;
19879;SDS011;10102;50.828;4.416;2023-04-01T03:25:36;23.67;;;6.63;;
19879;SDS011;10102;50.828;4.416;2023-04-01T03:28:02;19.75;;;7.95;;
19879;SDS011;10102;50.828;4.416;2023-04-01T03:30:28;14.40;;;6.82;;
19879;SDS011;10102;50.828;4.416;2023-04-01T03:32:57;22.23;;;7.13;;
19879;SDS011;10102;50.828;4.416;2023-04-01T03:35:24;20.75;;;7.85;;
19879;SDS011;10102;50.828;4.416;2023-04-01T03:37:51;22.08;;;7.55;;
19879;SDS011;10102;50.828;4.416;2023-04-01T03:40:17;15.63;;;7.30;;
19879;SDS011;10102;50.828;4.416;2023-04-01T03:42:42;28.10;;;8.65;;
19879;SDS011;10102;50.828;4.416;2023-04-01T03:45:09;19.98;;;8.80;;
19879;SDS011;10102;50.828;4.416;2023-04-01T03:47:36;21.60;;;8.63;;
19879;SDS011;10102;50.828;4.416;2023-04-01T03:50:03;26.98;;;8.80;;
19879;SDS011;10102;50.828;4.416;2023-04-01T03:52:30;28.02;;;8.75;;
19879;SDS011;10102;50.828;4.416;2023-04-01T03:54:56;25.45;;;8.07;;
19879;SDS011;10102;50.828;4.416;2023-04-01T03:57:22;25.77;;;9.27;;
19879;SDS011;10102;50.828;4.416;2023-04-01T03:59:48;31.42;;;8.40;;
19879;SDS011;10102;50.828;4.416;2023-04-01T04:02:14;28.27;;;7.78;;
19879;SDS011;10102;50.828;4.416;2023-04-01T04:04:39;22.83;;;9.15;;
19879;SDS011;10102;50.828;4.416;2023-04-01T04:07:06;21.67;;;9.70;;
19879;SDS011;10102;50.828;4.416;2023-04-01T04:09:32;18.13;;;7.32;;
19879;SDS011;10102;50.828;4.416;2023-04-01T04:11:58;28.15;;;8.35;;
19879;SDS011;10102;50.828;4.416;2023-04-01T04:14:24;19.25;;;8.23;;
19879;SDS011;10102;50.828;4.416;2023-04-01T04:16:50;23.83;;;7.70;;
19879;SDS011;10102;50.828;4.416;2023-04-01T04:19:16;24.17;;;7.93;;
19879;SDS011;10102;50.828;4.416;2023-04-01T04:21:41;25.38;;;8.98;;
19879;SDS011;10102;50.828;4.416;2023-04-01T04:24:07;25.80;;;8.50;;
19879;SDS011;10102;50.828;4.416;2023-04-01T04:26:34;23.92;;;7.82;;
19879;SDS011;10102;50.828;4.416;2023-04-01T04:29:00;25.95;;;8.18;;
19879;SDS011;10102;50.828;4.416;2023-04-01T04:31:26;16.77;;;6.45;;
19879;SDS011;10102;50.828;4.416;2023-04-01T04:33:52;18.20;;;7.50;;
19879;SDS011;10102;50.828;4.416;2023-04-01T04:36:18;19.42;;;6.90;;
19879;SDS011;10102;50.828;4.416;2023-04-01T04:38:44;14.88;;;6.45;;
19879;SDS011;10102;50.828;4.416;2023-04-01T04:41:15;18.35;;;5.85;;
19879;SDS011;10102;50.828;4.416;2023-04-01T04:43:47;12.63;;;6.20;;
19879;SDS011;10102;50.828;4.416;2023-04-01T04:46:15;15.05;;;6.25;;
19879;SDS011;10102;50.828;4.416;2023-04-01T04:48:40;11.43;;;5.90;;
19879;SDS011;10102;50.828;4.416;2023-04-01T04:51:06;16.85;;;6.05;;
19879;SDS011;10102;50.828;4.416;2023-04-01T04:53:32;12.90;;;5.80;;
19879;SDS011;10102;50.828;4.416;2023-04-01T04:55:57;16.52;;;6.15;;
19879;SDS011;10102;50.828;4.416;2023-04-01T04:58:23;11.77;;;5.30;;
19879;SDS011;10102;50.828;4.416;2023-04-01T05:00:49;11.70;;;5.75;;
19879;SDS011;10102;50.828;4.416;2023-04-01T05:03:15;13.50;;;5.50;;
19879;SDS011;10102;50.828;4.416;2023-04-01T05:05:47;15.55;;;5.30;;
19879;SDS011;10102;50.828;4.416;2023-04-01T05:08:14;12.60;;;6.40;;
19879;SDS011;10102;50.828;4.416;2023-04-01T05:10:40;13.13;;;5.45;;
19879;SDS011;10102;50.828;4.416;2023-04-01T05:13:06;13.23;;;5.75;;
19879;SDS011;10102;50.828;4.416;2023-04-01T05:15:32;9.80;;;4.78;;
19879;SDS011;10102;50.828;4.416;2023-04-01T05:17:58;7.45;;;4.78;;
19879;SDS011;10102;50.828;4.416;2023-04-01T05:20:23;18.42;;;6.10;;
19879;SDS011;10102;50.828;4.416;2023-04-01T05:22:49;11.23;;;5.30;;
19879;SDS011;10102;50.828;4.416;2023-04-01T05:25:15;18.55;;;6.65;;
19879;SDS011;10102;50.828;4.416;2023-04-01T05:27:41;15.13;;;5.55;;
19879;SDS011;10102;50.828;4.416;2023-04-01T05:30:06;14.93;;;5.90;;
19879;SDS011;10102;50.828;4.416;2023-04-01T05:32:33;18.98;;;6.22;;
19879;SDS011;10102;50.828;4.416;2023-04-01T05:34:58;14.25;;;5.75;;
19879;SDS011;10102;50.828;4.416;2023-04-01T05:37:24;13.25;;;6.45;;
19879;SDS011;10102;50.828;4.416;2023-04-01T05:39:50;15.73;;;6.82;;
19879;SDS011;10102;50.828;4.416;2023-04-01T05:42:16;23.38;;;7.35;;
19879;SDS011;10102;50.828;4.416;2023-04-01T05:44:41;20.15;;;7.32;;
19879;SDS011;10102;50.828;4.416;2023-04-01T05:47:07;19.15;;;7.55;;
19879;SDS011;10102;50.828;4.416;2023-04-01T05:49:33;21.23;;;8.38;;
19879;SDS011;10102;50.828;4.416;2023-04-01T05:51:59;21.58;;;8.50;;
19879;SDS011;10102;50.828;4.416;2023-04-01T05:54:24;24.13;;;8.48;;
19879;SDS011;10102;50.828;4.416;2023-04-01T05:56:50;25.08;;;8.85;;
19879;SDS011;10102;50.828;4.416;2023-04-01T05:59:16;18.27;;;7.63;;
19879;SDS011;10102;50.828;4.416;2023-04-01T06:01:42;31.90;;;9.57;;
19879;SDS011;10102;50.828;4.416;2023-04-01T06:04:10;21.40;;;9.23;;
19879;SDS011;10102;50.828;4.416;2023-04-01T06:06:40;26.08;;;9.27;;
19879;SDS011;10102;50.828;4.416;2023-04-01T06:22:49;24.95;;;9.38;;
19879;SDS011;10102;50.828;4.416;2023-04-01T06:33:42;24.95;;;10.70;;
19879;SDS011;10102;50.828;4.416;2023-04-01T06:41:52;25.92;;;8.75;;
19879;SDS011;10102;50.828;4.416;2023-04-01T06:53:09;18.00;;;8.55;;
19879;SDS011;10102;50.828;4.416;2023-04-01T06:55:46;23.02;;;8.93;;
19879;SDS011;10102;50.828;4.416;2023-04-01T06:58:37;17.08;;;8.73;;
19879;SDS011;10102;50.828;4.416;2023-04-01T07:01:06;26.75;;;10.55;;
19879;SDS011;10102;50.828;4.416;2023-04-01T07:03:36;20.42;;;9.30;;
19879;SDS011;10102;50.828;4.416;2023-04-01T07:06:09;20.13;;;8.40;;
19879;SDS011;10102;50.828;4.416;2023-04-01T07:08:59;18.45;;;7.47;;
19879;SDS011;10102;50.828;4.416;2023-04-01T07:11:31;12.93;;;6.25;;
19879;SDS011;10102;50.828;4.416;2023-04-01T07:14:00;18.15;;;7.82;;
19879;SDS011;10102;50.828;4.416;2023-04-01T07:16:56;21.52;;;7.85;;
19879;SDS011;10102;50.828;4.416;2023-04-01T07:19:29;18.27;;;6.45;;
19879;SDS011;10102;50.828;4.416;2023-04-01T07:22:02;14.18;;;5.38;;
19879;SDS011;10102;50.828;4.416;2023-04-01T07:24:34;12.77;;;5.57;;
19879;SDS011;10102;50.828;4.416;2023-04-01T07:27:02;13.27;;;5.28;;
19879;SDS011;10102;50.828;4.416;2023-04-01T07:29:30;12.80;;;5.40;;
19879;SDS011;10102;50.828;4.416;2023-04-01T07:34:50;13.02;;;5.28;;
19879;SDS011;10102;50.828;4.416;2023-04-01T07:40:14;8.13;;;5.07;;
19879;SDS011;10102;50.828;4.416;2023-04-01T08:02:28;5.07;;;3.65;;
19879;SDS011;10102;50.828;4.416;2023-04-01T08:07:48;6.05;;;2.60;;
19879;SDS011;10102;50.828;4.416;2023-04-01T08:10:26;3.67;;;2.42;;
19879;SDS011;10102;50.828;4.416;2023-04-01T08:21:35;3.95;;;2.85;;
19879;SDS011;10102;50.828;4.416;2023-04-01T08:24:18;5.50;;;2.33;;
19879;SDS011;10102;50.828;4.416;2023-04-01T08:27:06;3.83;;;2.50;;
19879;SDS011;10102;50.828;4.416;2023-04-01T08:29:47;5.95;;;2.90;;
19879;SDS011;10102;50.828;4.416;2023-04-01T08:32:39;4.78;;;2.67;;
19879;SDS011;10102;50.828;4.416;2023-04-01T08:35:09;4.45;;;2.72;;
19879;SDS011;10102;50.828;4.416;2023-04-01T08:37:45;3.92;;;2.75;;
19879;SDS011;10102;50.828;4.416;2023-04-01T08:43:09;3.95;;;2.75;;
19879;SDS011;10102;50.828;4.416;2023-04-01T08:51:40;2.60;;;2.40;;
19879;SDS011;10102;50.828;4.416;2023-04-01T08:54:29;4.13;;;1.98;;
19879;SDS011;10102;50.828;4.416;2023-04-01T09:08:28;2.30;;;1.90;;
19879;SDS011;10102;50.828;4.416;2023-04-01T09:17:06;3.45;;;2.42;;
19879;SDS011;10102;50.828;4.416;2023-04-01T09:23:20;3.13;;;2.83;;
19879;SDS011;10102;50.828;4.416;2023-04-01T09:26:26;4.15;;;3.22;;
19879;SDS011;10102;50.828;4.416;2023-04-01T09:29:11;7.53;;;2.72;;
19879;SDS011;10102;50.828;4.416;2023-04-01T09:31:54;3.60;;;2.67;;
19879;SDS011;10102;50.828;4.416;2023-04-01T09:34:41;5.95;;;3.15;;
19879;SDS011;10102;50.828;4.416;2023-04-01T09:40:28;8.80;;;3.33;;
19879;SDS011;10102;50.828;4.416;2023-04-01T09:46:37;8.98;;;3.53;;
19879;SDS011;10102;50.828;4.416;2023-04-01T10:00:32;4.25;;;3.30;;
19879;SDS011;10102;50.828;4.416;2023-04-01T11:16:04;2.58;;;2.38;;
19879;SDS011;10102;50.828;4.416;2023-04-01T11:30:10;5.07;;;3.35;;
19879;SDS011;10102;50.828;4.416;2023-04-01T11:38:19;4.38;;;3.40;;
19879;SDS011;10102;50.828;4.416;2023-04-01T11:40:57;5.93;;;3.65;;
19879;SDS011;10102;50.828;4.416;2023-04-01T11:46:27;6.05;;;3.95;;
19879;SDS011;10102;50.828;4.416;2023-04-01T11:49:07;4.72;;;3.47;;
19879;SDS011;10102;50.828;4.416;2023-04-01T12:02:25;4.75;;;3.35;;
19879;SDS011;10102;50.828;4.416;2023-04-01T12:18:59;4.97;;;3.13;;
19879;SDS011;10102;50.828;4.416;2023-04-01T12:32:47;6.45;;;3.30;;
19879;SDS011;10102;50.828;4.416;2023-04-01T12:37:58;5.75;;;3.38;;
19879;SDS011;10102;50.828;4.416;2023-04-01T12:43:21;3.78;;;3.08;;
19879;SDS011;10102;50.828;4.416;2023-04-01T12:46:31;4.93;;;3.00;;
19879;SDS011;10102;50.828;4.416;2023-04-01T12:49:16;4.32;;;2.80;;
19879;SDS011;10102;50.828;4.416;2023-04-01T12:57:28;3.90;;;3.10;;
19879;SDS011;10102;50.828;4.416;2023-04-01T13:03:12;4.63;;;3.45;;
19879;SDS011;10102;50.828;4.416;2023-04-01T13:22:45;6.03;;;2.97;;
19879;SDS011;10102;50.828;4.416;2023-04-01T13:25:36;7.72;;;2.88;;
19879;SDS011;10102;50.828;4.416;2023-04-01T13:28:30;4.47;;;2.97;;
19879;SDS011;10102;50.828;4.416;2023-04-01T13:31:10;5.25;;;2.80;;
19879;SDS011;10102;50.828;4.416;2023-04-01T13:42:13;3.10;;;2.78;;
19879;SDS011;10102;50.828;4.416;2023-04-01T13:44:45;3.85;;;2.50;;
19879;SDS011;10102;50.828;4.416;2023-04-01T14:03:51;3.20;;;2.35;;
19879;SDS011;10102;50.828;4.416;2023-04-01T14:06:37;5.13;;;2.30;;
19879;SDS011;10102;50.828;4.416;2023-04-01T14:23:49;2.95;;;2.60;;
19879;SDS011;10102;50.828;4.416;2023-04-01T14:38:04;3.75;;;2.13;;
19879;SDS011;10102;50.828;4.416;2023-04-01T14:46:04;2.53;;;1.77;;
19879;SDS011;10102;50.828;4.416;2023-04-01T14:48:59;2.65;;;1.88;;
19879;SDS011;10102;50.828;4.416;2023-04-01T14:56:39;3.25;;;2.25;;
19879;SDS011;10102;50.828;4.416;2023-04-01T14:59:13;5.63;;;1.77;;
19879;SDS011;10102;50.828;4.416;2023-04-01T15:12:42;3.92;;;1.92;;
19879;SDS011;10102;50.828;4.416;2023-04-01T15:18:09;2.42;;;1.60;;
19879;SDS011;10102;50.828;4.416;2023-04-01T15:26:22;3.63;;;1.98;;
19879;SDS011;10102;50.828;4.416;2023-04-01T15:31:59;2.45;;;1.90;;
19879;SDS011;10102;50.828;4.416;2023-04-01T15:42:36;4.90;;;2.30;;
19879;SDS011;10102;50.828;4.416;2023-04-01T15:45:18;2.58;;;1.58;;
19879;SDS011;10102;50.828;4.416;2023-04-01T15:51:11;3.20;;;2.45;;
19879;SDS011;10102;50.828;4.416;2023-04-01T15:59:11;3.58;;;2.38;;
19879;SDS011;10102;50.828;4.416;2023-04-01T16:02:37;3.95;;;2.92;;
19879;SDS011;10102;50.828;4.416;2023-04-01T16:16:36;3.80;;;3.17;;
19879;SDS011;10102;50.828;4.416;2023-04-01T16:19:27;2.75;;;2.30;;
19879;SDS011;10102;50.828;4.416;2023-04-01T16:25:29;4.75;;;2.38;;
19879;SDS011;10102;50.828;4.416;2023-04-01T16:31:09;3.20;;;1.88;;
19879;SDS011;10102;50.828;4.416;2023-04-01T16:36:30;2.22;;;2.03;;
19879;SDS011;10102;50.828;4.416;2023-04-01T16:44:31;2.45;;;2.25;;
19879;SDS011;10102;50.828;4.416;2023-04-01T16:47:32;2.92;;;2.47;;
19879;SDS011;10102;50.828;4.416;2023-04-01T16:55:33;2.42;;;1.85;;
19879;SDS011;10102;50.828;4.416;2023-04-01T16:58:18;5.05;;;2.60;;
19879;SDS011;10102;50.828;4.416;2023-04-01T17:00:55;5.25;;;2.17;;
19879;SDS011;10102;50.828;4.416;2023-04-01T17:03:36;3.67;;;2.38;;
19879;SDS011;10102;50.828;4.416;2023-04-01T17:11:35;4.03;;;2.05;;
19879;SDS011;10102;50.828;4.416;2023-04-01T17:30:12;3.13;;;2.50;;
19879;SDS011;10102;50.828;4.416;2023-04-01T17:32:51;5.13;;;3.10;;
19879;SDS011;10102;50.828;4.416;2023-04-01T17:35:26;3.13;;;2.45;;
19879;SDS011;10102;50.828;4.416;2023-04-01T17:43:37;3.30;;;2.88;;
19879;SDS011;10102;50.828;4.416;2023-04-01T17:46:24;3.08;;;2.72;;
19879;SDS011;10102;50.828;4.416;2023-04-01T17:57:39;4.60;;;3.13;;
19879;SDS011;10102;50.828;4.416;2023-04-01T18:00:23;3.20;;;2.90;;
19879;SDS011;10102;50.828;4.416;2023-04-01T18:02:59;3.92;;;3.40;;
19879;SDS011;10102;50.828;4.416;2023-04-01T18:11:28;5.72;;;3.33;;
19879;SDS011;10102;50.828;4.416;2023-04-01T18:17:20;6.93;;;3.80;;
19879;SDS011;10102;50.828;4.416;2023-04-01T18:20:18;4.55;;;4.10;;
19879;SDS011;10102;50.828;4.416;2023-04-01T18:30:59;8.57;;;5.32;;
19879;SDS011;10102;50.828;4.416;2023-04-01T18:41:54;8.77;;;6.15;;
19879;SDS011;10102;50.828;4.416;2023-04-01T18:56:01;8.65;;;6.88;;
19879;SDS011;10102;50.828;4.416;2023-04-01T18:58:35;7.90;;;6.75;;
19879;SDS011;10102;50.828;4.416;2023-04-01T19:01:28;9.45;;;7.32;;
19879;SDS011;10102;50.828;4.416;2023-04-01T19:06:36;11.10;;;8.35;;
19879;SDS011;10102;50.828;4.416;2023-04-01T19:09:24;10.43;;;7.82;;
19879;SDS011;10102;50.828;4.416;2023-04-01T19:14:53;11.10;;;8.55;;
19879;SDS011;10102;50.828;4.416;2023-04-01T19:17:50;15.00;;;9.18;;
19879;SDS011;10102;50.828;4.416;2023-04-01T19:20:38;14.38;;;9.55;;
19879;SDS011;10102;50.828;4.416;2023-04-01T19:25:57;14.38;;;10.80;;
19879;SDS011;10102;50.828;4.416;2023-04-01T19:31:03;17.23;;;10.20;;
19879;SDS011;10102;50.828;4.416;2023-04-01T19:42:18;22.58;;;12.93;;
19879;SDS011;10102;50.828;4.416;2023-04-01T19:47:44;20.33;;;12.48;;
19879;SDS011;10102;50.828;4.416;2023-04-01T19:50:53;20.50;;;12.45;;
19879;SDS011;10102;50.828;4.416;2023-04-01T19:53:44;20.55;;;12.52;;
19879;SDS011;10102;50.828;4.416;2023-04-01T19:56:23;23.17;;;13.00;;
19879;SDS011;10102;50.828;4.416;2023-04-01T19:59:02;21.33;;;12.57;;
19879;SDS011;10102;50.828;4.416;2023-04-01T20:04:25;18.90;;;11.38;;
19879;SDS011;10102;50.828;4.416;2023-04-01T20:07:07;19.80;;;11.77;;
19879;SDS011;10102;50.828;4.416;2023-04-01T20:15:23;23.13;;;11.07;;
19879;SDS011;10102;50.828;4.416;2023-04-01T20:18:05;19.83;;;10.90;;
19879;SDS011;10102;50.828;4.416;2023-04-01T20:20:57;15.77;;;10.63;;
19879;SDS011;10102;50.828;4.416;2023-04-01T20:24:14;18.38;;;11.45;;
19879;SDS011;10102;50.828;4.416;2023-04-01T20:26:26;19.55;;;11.00;;
19879;SDS011;10102;50.828;4.416;2023-04-01T20:31:41;19.15;;;10.75;;
19879;SDS011;10102;50.828;4.416;2023-04-01T20:39:44;29.00;;;12.98;;
19879;SDS011;10102;50.828;4.416;2023-04-01T20:42:53;24.17;;;12.10;;
19879;SDS011;10102;50.828;4.416;2023-04-01T21:07:48;23.98;;;11.93;;
19879;SDS011;10102;50.828;4.416;2023-04-01T21:11:18;25.15;;;12.15;;
19879;SDS011;10102;50.828;4.416;2023-04-01T21:14:28;21.05;;;11.25;;
19879;SDS011;10102;50.828;4.416;2023-04-01T21:31:02;25.77;;;12.23;;
19879;SDS011;10102;50.828;4.416;2023-04-01T21:43:44;29.25;;;13.65;;
19879;SDS011;10102;50.828;4.416;2023-04-01T22:05:32;15.82;;;10.60;;
19879;SDS011;10102;50.828;4.416;2023-04-01T22:16:32;26.05;;;11.02;;
19879;SDS011;10102;50.828;4.416;2023-04-01T22:19:51;15.10;;;10.70;;
19879;SDS011;10102;50.828;4.416;2023-04-01T22:30:24;17.17;;;11.00;;
19879;SDS011;10102;50.828;4.416;2023-04-01T22:33:10;15.43;;;10.30;;
19879;SDS011;10102;50.828;4.416;2023-04-01T22:38:51;18.73;;;10.52;;
19879;SDS011;10102;50.828;4.416;2023-04-01T22:44:37;16.85;;;12.05;;
19879;SDS011;10102;50.828;4.416;2023-04-01T22:52:31;17.40;;;12.10;;
19879;SDS011;10102;50.828;4.416;2023-04-01T22:58:04;18.20;;;12.45;;
19879;SDS011;10102;50.828;4.416;2023-04-01T23:00:48;18.73;;;12.68;;
19879;SDS011;10102;50.828;4.416;2023-04-01T23:05:57;18.60;;;12.80;;
19879;SDS011;10102;50.828;4.416;2023-04-01T23:16:39;16.20;;;11.35;;
19879;SDS011;10102;50.828;4.416;2023-04-01T23:19:18;17.80;;;12.25;;
19879;SDS011;10102;50.828;4.416;2023-04-01T23:21:52;15.25;;;11.07;;
19879;SDS011;10102;50.828;4.416;2023-04-01T23:24:26;16.13;;;11.40;;
19879;SDS011;10102;50.828;4.416;2023-04-01T23:30:03;15.77;;;10.00;;
19879;SDS011;10102;50.828;4.416;2023-04-01T23:32:49;17.58;;;10.85;;
19879;SDS011;10102;50.828;4.416;2023-04-01T23:35:15;14.27;;;10.40;;
19879;SDS011;10102;50.828;4.416;2023-04-01T23:37:42;18.40;;;11.90;;
19879;SDS011;10102;50.828;4.416;2023-04-01T23:40:10;16.00;;;11.15;;
19879;SDS011;10102;50.828;4.416;2023-04-01T23:42:38;16.90;;;11.10;;
19879;SDS011;10102;50.828;4.416;2023-04-01T23:45:14;15.57;;;11.45;;
19879;SDS011;10102;50.828;4.416;2023-04-01T23:47:45;17.35;;;11.73;;
19879;SDS011;10102;50.828;4.416;2023-04-01T23:50:18;16.65;;;11.95;;
19879;SDS011;10102;50.828;4.416;2023-04-01T23:52:52;17.40;;;11.90;;
19879;SDS011;10102;50.828;4.416;2023-04-01T23:55:28;19.63;;;11.85;;
19879;SDS011;10102;50.828;4.416;2023-04-01T23:58:12;16.23;;;12.05;;
